sensor_id;sensor_type;location;lat;lon;timestamp;pressure;altitude;pressure_sealevel;temperature;humidity
14902;BME280;7542;49.078;9.194;2023-12-20T00:00:36;98618.28;;;31.89;28.38
14902;BME280;7542;49.078;9.194;2023-12-20T00:01:39;98624.69;;;31.93;28.64
14902;BME280;7542;49.078;9.194;2023-12-20T00:02:41;98623.75;;;31.98;28.48
14902;BME280;7542;49.078;9.194;2023-12-20T00:03:48;98615.31;;;31.99;28.34
14902;BME280;7542;49.078;9.194;2023-12-20T00:04:50;98618.50;;;32.01;28.18
14902;BME280;7542;49.078;9.194;2023-12-20T00:05:52;98605.16;;;32.05;28.36
14902;BME280;7542;49.078;9.194;2023-12-20T00:06:54;98615.38;;;32.08;28.35
14902;BME280;7542;49.078;9.194;2023-12-20T00:07:56;98612.34;;;32.10;28.42
14902;BME280;7542;49.078;9.194;2023-12-20T00:08:58;98609.31;;;32.11;28.45
14902;BME280;7542;49.078;9.194;2023-12-20T00:10:00;98611.44;;;32.14;28.28
14902;BME280;7542;49.078;9.194;2023-12-20T00:11:02;98600.59;;;32.14;28.18
14902;BME280;7542;49.078;9.194;2023-12-20T00:12:04;98605.22;;;32.14;27.97
14902;BME280;7542;49.078;9.194;2023-12-20T00:13:07;98596.06;;;32.10;27.80
14902;BME280;7542;49.078;9.194;2023-12-20T00:14:09;98602.94;;;32.07;27.71
14902;BME280;7542;49.078;9.194;2023-12-20T00:15:11;98594.63;;;32.04;27.38
14902;BME280;7542;49.078;9.194;2023-12-20T00:16:13;98592.50;;;32.00;27.29
14902;BME280;7542;49.078;9.194;2023-12-20T00:17:15;98592.97;;;31.94;27.24
14902;BME280;7542;49.078;9.194;2023-12-20T00:18:17;98592.75;;;31.90;27.13
14902;BME280;7542;49.078;9.194;2023-12-20T00:19:19;98593.22;;;31.84;26.98
14902;BME280;7542;49.078;9.194;2023-12-20T00:20:21;98587.09;;;31.78;26.75
14902;BME280;7542;49.078;9.194;2023-12-20T00:21:23;98584.50;;;31.73;26.97
14902;BME280;7542;49.078;9.194;2023-12-20T00:22:25;98583.81;;;31.67;26.67
14902;BME280;7542;49.078;9.194;2023-12-20T00:23:27;98582.34;;;31.61;26.88
14902;BME280;7542;49.078;9.194;2023-12-20T00:24:29;98588.66;;;31.57;26.82
14902;BME280;7542;49.078;9.194;2023-12-20T00:25:31;98580.97;;;31.50;26.47
14902;BME280;7542;49.078;9.194;2023-12-20T00:26:33;98575.66;;;31.45;26.68
14902;BME280;7542;49.078;9.194;2023-12-20T00:27:35;98576.59;;;31.40;26.79
14902;BME280;7542;49.078;9.194;2023-12-20T00:28:37;98576.19;;;31.33;26.91
14902;BME280;7542;49.078;9.194;2023-12-20T00:29:39;98569.00;;;31.29;26.92
14902;BME280;7542;49.078;9.194;2023-12-20T00:30:41;98575.63;;;31.23;26.37
14902;BME280;7542;49.078;9.194;2023-12-20T00:31:43;98578.44;;;31.17;26.49
14902;BME280;7542;49.078;9.194;2023-12-20T00:32:45;98579.63;;;31.11;26.57
14902;BME280;7542;49.078;9.194;2023-12-20T00:33:50;98572.75;;;30.92;26.33
14902;BME280;7542;49.078;9.194;2023-12-20T00:34:52;98579.50;;;30.94;26.41
14902;BME280;7542;49.078;9.194;2023-12-20T00:35:57;98580.88;;;30.92;26.70
14902;BME280;7542;49.078;9.194;2023-12-20T00:36:59;98584.81;;;30.85;26.62
14902;BME280;7542;49.078;9.194;2023-12-20T00:38:01;98584.59;;;30.82;26.37
14902;BME280;7542;49.078;9.194;2023-12-20T00:39:03;98584.41;;;30.78;26.46
14902;BME280;7542;49.078;9.194;2023-12-20T00:40:06;98577.78;;;30.71;26.35
14902;BME280;7542;49.078;9.194;2023-12-20T00:41:08;98573.78;;;30.68;26.55
14902;BME280;7542;49.078;9.194;2023-12-20T00:42:11;98575.78;;;30.63;26.46
14902;BME280;7542;49.078;9.194;2023-12-20T00:43:12;98576.66;;;30.58;26.48
14902;BME280;7542;49.078;9.194;2023-12-20T00:44:14;98582.19;;;30.53;26.57
14902;BME280;7542;49.078;9.194;2023-12-20T00:45:16;98580.34;;;30.48;26.25
14902;BME280;7542;49.078;9.194;2023-12-20T00:46:18;98589.88;;;30.46;26.21
14902;BME280;7542;49.078;9.194;2023-12-20T00:47:21;98581.88;;;30.41;26.22
14902;BME280;7542;49.078;9.194;2023-12-20T00:48:23;98583.88;;;30.35;26.49
14902;BME280;7542;49.078;9.194;2023-12-20T00:49:25;98577.75;;;30.29;26.83
14902;BME280;7542;49.078;9.194;2023-12-20T00:50:27;98577.84;;;30.24;26.71
14902;BME280;7542;49.078;9.194;2023-12-20T00:51:31;98576.25;;;30.23;26.32
14902;BME280;7542;49.078;9.194;2023-12-20T00:52:33;98579.84;;;30.19;26.38
14902;BME280;7542;49.078;9.194;2023-12-20T00:53:35;98582.03;;;30.17;26.74
14902;BME280;7542;49.078;9.194;2023-12-20T00:54:37;98575.91;;;30.11;26.89
14902;BME280;7542;49.078;9.194;2023-12-20T00:55:39;98573.81;;;30.08;26.69
14902;BME280;7542;49.078;9.194;2023-12-20T00:56:40;98578.69;;;30.06;26.66
14902;BME280;7542;49.078;9.194;2023-12-20T00:57:42;98581.47;;;30.01;26.41
14902;BME280;7542;49.078;9.194;2023-12-20T00:58:45;98581.78;;;29.99;26.68
14902;BME280;7542;49.078;9.194;2023-12-20T00:59:47;98574.53;;;29.95;27.07
14902;BME280;7542;49.078;9.194;2023-12-20T01:00:48;98570.53;;;29.92;26.80
14902;BME280;7542;49.078;9.194;2023-12-20T01:01:50;98573.03;;;29.89;26.80
14902;BME280;7542;49.078;9.194;2023-12-20T01:02:53;98581.44;;;29.87;26.92
14902;BME280;7542;49.078;9.194;2023-12-20T01:03:54;98580.09;;;29.85;27.03
14902;BME280;7542;49.078;9.194;2023-12-20T01:04:57;98583.13;;;29.83;27.00
14902;BME280;7542;49.078;9.194;2023-12-20T01:05:59;98570.50;;;29.79;26.94
14902;BME280;7542;49.078;9.194;2023-12-20T01:07:01;98576.19;;;29.77;26.82
14902;BME280;7542;49.078;9.194;2023-12-20T01:08:04;98571.38;;;29.74;26.67
14902;BME280;7542;49.078;9.194;2023-12-20T01:09:06;98570.88;;;29.72;26.60
14902;BME280;7542;49.078;9.194;2023-12-20T01:10:08;98574.16;;;29.69;26.88
14902;BME280;7542;49.078;9.194;2023-12-20T01:11:11;98570.47;;;29.65;26.85
14902;BME280;7542;49.078;9.194;2023-12-20T01:12:13;98573.72;;;29.62;26.83
14902;BME280;7542;49.078;9.194;2023-12-20T01:13:15;98572.44;;;29.59;26.80
14902;BME280;7542;49.078;9.194;2023-12-20T01:14:17;98581.13;;;29.56;26.89
14902;BME280;7542;49.078;9.194;2023-12-20T01:15:19;98579.81;;;29.54;27.21
14902;BME280;7542;49.078;9.194;2023-12-20T01:16:21;98579.28;;;29.52;26.76
14902;BME280;7542;49.078;9.194;2023-12-20T01:17:23;98571.78;;;29.49;26.84
14902;BME280;7542;49.078;9.194;2023-12-20T01:18:25;98577.44;;;29.47;27.18
14902;BME280;7542;49.078;9.194;2023-12-20T01:19:27;98577.75;;;29.45;27.00
14902;BME280;7542;49.078;9.194;2023-12-20T01:20:30;98574.00;;;29.41;26.93
14902;BME280;7542;49.078;9.194;2023-12-20T01:21:31;98570.00;;;29.39;27.37
14902;BME280;7542;49.078;9.194;2023-12-20T01:22:33;98580.81;;;29.39;27.04
14902;BME280;7542;49.078;9.194;2023-12-20T01:23:37;98583.81;;;29.37;27.27
14902;BME280;7542;49.078;9.194;2023-12-20T01:24:39;98570.94;;;29.29;27.27
14902;BME280;7542;49.078;9.194;2023-12-20T01:25:41;98576.09;;;29.31;27.48
14902;BME280;7542;49.078;9.194;2023-12-20T01:26:43;98572.03;;;29.28;27.45
14902;BME280;7542;49.078;9.194;2023-12-20T01:27:45;98574.25;;;29.26;27.00
14902;BME280;7542;49.078;9.194;2023-12-20T01:28:47;98575.34;;;29.25;27.02
14902;BME280;7542;49.078;9.194;2023-12-20T01:29:49;98578.63;;;29.22;27.03
14902;BME280;7542;49.078;9.194;2023-12-20T01:30:51;98581.63;;;29.21;26.87
14902;BME280;7542;49.078;9.194;2023-12-20T01:31:53;98582.69;;;29.20;27.43
14902;BME280;7542;49.078;9.194;2023-12-20T01:32:55;98585.97;;;29.16;27.21
14902;BME280;7542;49.078;9.194;2023-12-20T01:33:57;98582.78;;;29.14;27.14
14902;BME280;7542;49.078;9.194;2023-12-20T01:34:59;98585.47;;;29.14;27.55
14902;BME280;7542;49.078;9.194;2023-12-20T01:36:04;98579.06;;;29.10;27.07
14902;BME280;7542;49.078;9.194;2023-12-20T01:37:06;98580.16;;;29.09;27.58
14902;BME280;7542;49.078;9.194;2023-12-20T01:38:09;98571.53;;;29.07;27.47
14902;BME280;7542;49.078;9.194;2023-12-20T01:39:10;98581.81;;;29.05;27.61
14902;BME280;7542;49.078;9.194;2023-12-20T01:40:25;98580.72;;;29.06;27.33
14902;BME280;7542;49.078;9.194;2023-12-20T01:41:28;98574.00;;;29.04;27.56
14902;BME280;7542;49.078;9.194;2023-12-20T01:42:29;98578.09;;;29.01;27.20
14902;BME280;7542;49.078;9.194;2023-12-20T01:43:31;98579.19;;;29.00;27.68
14902;BME280;7542;49.078;9.194;2023-12-20T01:44:48;98571.91;;;29.01;27.26
14902;BME280;7542;49.078;9.194;2023-12-20T01:45:50;98578.69;;;28.98;27.36
14902;BME280;7542;49.078;9.194;2023-12-20T01:46:52;98582.25;;;28.94;27.69
14902;BME280;7542;49.078;9.194;2023-12-20T01:47:57;98580.63;;;28.93;27.63
14902;BME280;7542;49.078;9.194;2023-12-20T01:49:00;98568.25;;;28.92;27.57
14902;BME280;7542;49.078;9.194;2023-12-20T01:50:03;98577.72;;;28.89;27.47
14902;BME280;7542;49.078;9.194;2023-12-20T01:51:06;98574.22;;;28.89;27.64
14902;BME280;7542;49.078;9.194;2023-12-20T01:52:08;98574.47;;;28.87;27.28
14902;BME280;7542;49.078;9.194;2023-12-20T01:53:14;98568.56;;;28.85;27.45
14902;BME280;7542;49.078;9.194;2023-12-20T01:54:19;98560.44;;;28.85;27.61
14902;BME280;7542;49.078;9.194;2023-12-20T01:55:22;98559.13;;;28.82;27.76
14902;BME280;7542;49.078;9.194;2023-12-20T01:56:28;98557.84;;;28.80;27.78
14902;BME280;7542;49.078;9.194;2023-12-20T01:57:31;98554.34;;;28.79;27.41
14902;BME280;7542;49.078;9.194;2023-12-20T01:58:33;98561.91;;;28.77;27.70
14902;BME280;7542;49.078;9.194;2023-12-20T01:59:36;98565.41;;;28.78;27.55
14902;BME280;7542;49.078;9.194;2023-12-20T02:00:38;98552.78;;;28.73;27.78
14902;BME280;7542;49.078;9.194;2023-12-20T02:01:40;98560.88;;;28.73;27.71
14902;BME280;7542;49.078;9.194;2023-12-20T02:02:44;98561.97;;;28.72;27.77
14902;BME280;7542;49.078;9.194;2023-12-20T02:03:47;98561.47;;;28.70;27.68
14902;BME280;7542;49.078;9.194;2023-12-20T02:04:49;98554.75;;;28.68;27.74
14902;BME280;7542;49.078;9.194;2023-12-20T02:05:53;98552.34;;;28.66;27.55
14902;BME280;7542;49.078;9.194;2023-12-20T02:06:56;98556.94;;;28.66;27.88
14902;BME280;7542;49.078;9.194;2023-12-20T02:07:58;98551.00;;;28.64;27.68
14902;BME280;7542;49.078;9.194;2023-12-20T02:09:00;98554.50;;;28.64;27.82
14902;BME280;7542;49.078;9.194;2023-12-20T02:10:03;98555.09;;;28.61;27.94
14902;BME280;7542;49.078;9.194;2023-12-20T02:11:08;98560.47;;;28.61;27.60
14902;BME280;7542;49.078;9.194;2023-12-20T02:12:10;98558.88;;;28.60;27.70
14902;BME280;7542;49.078;9.194;2023-12-20T02:13:11;98555.66;;;28.58;27.72
14902;BME280;7542;49.078;9.194;2023-12-20T02:14:14;98554.34;;;28.55;27.51
14902;BME280;7542;49.078;9.194;2023-12-20T02:15:16;98559.75;;;28.55;27.49
14902;BME280;7542;49.078;9.194;2023-12-20T02:16:18;98559.75;;;28.55;27.82
14902;BME280;7542;49.078;9.194;2023-12-20T02:17:20;98562.72;;;28.54;27.95
14902;BME280;7542;49.078;9.194;2023-12-20T02:18:23;98564.59;;;28.53;27.71
14902;BME280;7542;49.078;9.194;2023-12-20T02:19:25;98561.41;;;28.51;27.60
14902;BME280;7542;49.078;9.194;2023-12-20T02:20:27;98550.63;;;28.51;28.01
14902;BME280;7542;49.078;9.194;2023-12-20T02:21:33;98553.59;;;28.50;28.00
14902;BME280;7542;49.078;9.194;2023-12-20T02:22:36;98558.47;;;28.48;27.68
14902;BME280;7542;49.078;9.194;2023-12-20T02:23:38;98555.78;;;28.48;27.86
14902;BME280;7542;49.078;9.194;2023-12-20T02:24:40;98558.78;;;28.46;27.70
14902;BME280;7542;49.078;9.194;2023-12-20T02:25:42;98559.88;;;28.45;27.78
14902;BME280;7542;49.078;9.194;2023-12-20T02:26:44;98567.97;;;28.45;27.62
14902;BME280;7542;49.078;9.194;2023-12-20T02:27:49;98557.44;;;28.44;27.84
14902;BME280;7542;49.078;9.194;2023-12-20T02:28:51;98551.53;;;28.42;27.91
14902;BME280;7542;49.078;9.194;2023-12-20T02:29:53;98553.41;;;28.41;27.83
14902;BME280;7542;49.078;9.194;2023-12-20T02:30:55;98553.72;;;28.40;27.86
14902;BME280;7542;49.078;9.194;2023-12-20T02:31:57;98553.19;;;28.38;27.90
14902;BME280;7542;49.078;9.194;2023-12-20T02:33:07;98556.41;;;28.40;27.91
14902;BME280;7542;49.078;9.194;2023-12-20T02:34:10;98564.78;;;28.38;27.79
14902;BME280;7542;49.078;9.194;2023-12-20T02:35:12;98562.69;;;28.35;28.03
14902;BME280;7542;49.078;9.194;2023-12-20T02:36:14;98558.38;;;28.34;27.85
14902;BME280;7542;49.078;9.194;2023-12-20T02:37:16;98552.44;;;28.32;27.78
14902;BME280;7542;49.078;9.194;2023-12-20T02:38:18;98549.75;;;28.32;27.87
14902;BME280;7542;49.078;9.194;2023-12-20T02:39:22;98549.22;;;28.30;28.06
14902;BME280;7542;49.078;9.194;2023-12-20T02:40:24;98552.44;;;28.32;27.88
14902;BME280;7542;49.078;9.194;2023-12-20T02:41:26;98555.44;;;28.30;27.91
14902;BME280;7542;49.078;9.194;2023-12-20T02:42:27;98553.81;;;28.29;27.93
14902;BME280;7542;49.078;9.194;2023-12-20T02:43:29;98553.31;;;28.27;27.76
14902;BME280;7542;49.078;9.194;2023-12-20T02:44:31;98543.59;;;28.26;28.07
14902;BME280;7542;49.078;9.194;2023-12-20T02:45:33;98545.47;;;28.26;27.90
14902;BME280;7542;49.078;9.194;2023-12-20T02:46:35;98541.19;;;28.25;27.98
14902;BME280;7542;49.078;9.194;2023-12-20T02:47:37;98547.66;;;28.24;27.87
14902;BME280;7542;49.078;9.194;2023-12-20T02:48:39;98552.25;;;28.23;27.92
14902;BME280;7542;49.078;9.194;2023-12-20T02:49:41;98538.53;;;28.20;28.03
14902;BME280;7542;49.078;9.194;2023-12-20T02:50:43;98550.09;;;28.20;27.98
14902;BME280;7542;49.078;9.194;2023-12-20T02:51:44;98546.59;;;28.20;28.10
14902;BME280;7542;49.078;9.194;2023-12-20T02:52:46;98556.88;;;28.18;28.10
14902;BME280;7542;49.078;9.194;2023-12-20T02:53:48;98554.97;;;28.18;28.18
14902;BME280;7542;49.078;9.194;2023-12-20T02:54:50;98546.91;;;28.18;28.07
14902;BME280;7542;49.078;9.194;2023-12-20T02:55:52;98547.19;;;28.17;27.94
14902;BME280;7542;49.078;9.194;2023-12-20T02:56:54;98546.38;;;28.16;27.98
14902;BME280;7542;49.078;9.194;2023-12-20T02:57:56;98553.66;;;28.16;27.98
14902;BME280;7542;49.078;9.194;2023-12-20T02:58:58;98543.72;;;28.11;27.86
14902;BME280;7542;49.078;9.194;2023-12-20T03:00:00;98550.75;;;28.12;27.94
14902;BME280;7542;49.078;9.194;2023-12-20T03:01:02;98552.66;;;28.12;28.14
14902;BME280;7542;49.078;9.194;2023-12-20T03:02:04;98551.56;;;28.13;28.12
14902;BME280;7542;49.078;9.194;2023-12-20T03:03:06;98559.38;;;28.09;28.06
14902;BME280;7542;49.078;9.194;2023-12-20T03:04:08;98555.88;;;28.09;27.96
14902;BME280;7542;49.078;9.194;2023-12-20T03:05:10;98554.28;;;28.08;28.07
14902;BME280;7542;49.078;9.194;2023-12-20T03:06:18;98550.50;;;28.09;28.14
14902;BME280;7542;49.078;9.194;2023-12-20T03:07:21;98551.88;;;28.06;27.96
14902;BME280;7542;49.078;9.194;2023-12-20T03:08:23;98545.97;;;28.04;27.87
14902;BME280;7542;49.078;9.194;2023-12-20T03:09:25;98555.66;;;28.05;28.05
14902;BME280;7542;49.078;9.194;2023-12-20T03:10:27;98556.75;;;28.04;28.23
14902;BME280;7542;49.078;9.194;2023-12-20T03:11:29;98558.66;;;28.04;28.05
14902;BME280;7542;49.078;9.194;2023-12-20T03:12:31;98553.28;;;27.98;27.94
14902;BME280;7542;49.078;9.194;2023-12-20T03:13:32;98552.19;;;27.99;27.85
14902;BME280;7542;49.078;9.194;2023-12-20T03:14:34;98555.69;;;28.00;27.93
14902;BME280;7542;49.078;9.194;2023-12-20T03:15:36;98562.19;;;27.99;27.90
14902;BME280;7542;49.078;9.194;2023-12-20T03:16:39;98564.88;;;27.99;28.19
14902;BME280;7542;49.078;9.194;2023-12-20T03:17:41;98567.56;;;27.99;28.13
14902;BME280;7542;49.078;9.194;2023-12-20T03:18:43;98564.34;;;27.97;27.96
14902;BME280;7542;49.078;9.194;2023-12-20T03:19:45;98564.88;;;27.99;28.08
14902;BME280;7542;49.078;9.194;2023-12-20T03:20:47;98563.56;;;27.96;28.08
14902;BME280;7542;49.078;9.194;2023-12-20T03:21:51;98564.66;;;27.95;27.95
14902;BME280;7542;49.078;9.194;2023-12-20T03:22:55;98563.03;;;27.94;28.10
14902;BME280;7542;49.078;9.194;2023-12-20T03:23:57;98574.63;;;27.95;28.04
14902;BME280;7542;49.078;9.194;2023-12-20T03:24:59;98570.59;;;27.92;27.98
14902;BME280;7542;49.078;9.194;2023-12-20T03:26:01;98576.00;;;27.92;28.02
14902;BME280;7542;49.078;9.194;2023-12-20T03:27:03;98570.59;;;27.92;28.04
14902;BME280;7542;49.078;9.194;2023-12-20T03:28:05;98577.91;;;27.92;28.05
14902;BME280;7542;49.078;9.194;2023-12-20T03:29:07;98572.78;;;27.90;27.90
14902;BME280;7542;49.078;9.194;2023-12-20T03:30:09;98572.78;;;27.90;27.96
14902;BME280;7542;49.078;9.194;2023-12-20T03:31:12;98572.78;;;27.90;28.32
14902;BME280;7542;49.078;9.194;2023-12-20T03:32:14;98565.75;;;27.89;28.10
14902;BME280;7542;49.078;9.194;2023-12-20T03:33:16;98570.63;;;27.87;28.19
14902;BME280;7542;49.078;9.194;2023-12-20T03:34:17;98566.06;;;27.88;27.98
14902;BME280;7542;49.078;9.194;2023-12-20T03:35:19;98577.63;;;27.88;28.03
14902;BME280;7542;49.078;9.194;2023-12-20T03:36:21;98567.44;;;27.85;28.11
14902;BME280;7542;49.078;9.194;2023-12-20T03:37:23;98563.94;;;27.85;28.13
14902;BME280;7542;49.078;9.194;2023-12-20T03:38:25;98567.44;;;27.85;28.06
14902;BME280;7542;49.078;9.194;2023-12-20T03:39:27;98567.72;;;27.84;28.16
14902;BME280;7542;49.078;9.194;2023-12-20T03:40:29;98565.31;;;27.82;28.17
14902;BME280;7542;49.078;9.194;2023-12-20T03:41:31;98564.50;;;27.82;28.13
14902;BME280;7542;49.078;9.194;2023-12-20T03:42:32;98564.50;;;27.82;28.03
14902;BME280;7542;49.078;9.194;2023-12-20T03:43:34;98569.09;;;27.81;28.02
14902;BME280;7542;49.078;9.194;2023-12-20T03:44:39;98572.06;;;27.80;28.19
14902;BME280;7542;49.078;9.194;2023-12-20T03:45:42;98571.28;;;27.79;28.02
14902;BME280;7542;49.078;9.194;2023-12-20T03:46:44;98572.88;;;27.80;28.04
14902;BME280;7542;49.078;9.194;2023-12-20T03:47:47;98575.81;;;27.79;28.13
14902;BME280;7542;49.078;9.194;2023-12-20T03:48:50;98573.13;;;27.79;28.17
14902;BME280;7542;49.078;9.194;2023-12-20T03:49:53;98569.91;;;27.77;27.95
14902;BME280;7542;49.078;9.194;2023-12-20T03:50:55;98574.50;;;27.76;28.15
14902;BME280;7542;49.078;9.194;2023-12-20T03:51:57;98586.09;;;27.77;28.08
14902;BME280;7542;49.078;9.194;2023-12-20T03:52:58;98571.28;;;27.74;28.05
14902;BME280;7542;49.078;9.194;2023-12-20T03:54:00;98570.22;;;27.75;27.98
14902;BME280;7542;49.078;9.194;2023-12-20T03:55:02;98570.50;;;27.73;28.10
14902;BME280;7542;49.078;9.194;2023-12-20T03:56:05;98576.16;;;27.72;28.07
14902;BME280;7542;49.078;9.194;2023-12-20T03:57:07;98579.94;;;27.71;27.99
14902;BME280;7542;49.078;9.194;2023-12-20T03:58:09;98585.34;;;27.71;28.15
14902;BME280;7542;49.078;9.194;2023-12-20T03:59:11;98579.16;;;27.70;28.04
14902;BME280;7542;49.078;9.194;2023-12-20T04:00:13;98566.47;;;27.71;27.97
14902;BME280;7542;49.078;9.194;2023-12-20T04:01:15;98564.88;;;27.70;28.01
14902;BME280;7542;49.078;9.194;2023-12-20T04:02:17;98574.56;;;27.71;28.28
14902;BME280;7542;49.078;9.194;2023-12-20T04:03:19;98575.66;;;27.70;27.99
14902;BME280;7542;49.078;9.194;2023-12-20T04:04:21;98564.88;;;27.70;28.00
14902;BME280;7542;49.078;9.194;2023-12-20T04:05:23;98570.00;;;27.66;27.99
14902;BME280;7542;49.078;9.194;2023-12-20T04:06:25;98568.91;;;27.67;28.02
14902;BME280;7542;49.078;9.194;2023-12-20T04:07:27;98568.91;;;27.67;27.93
14902;BME280;7542;49.078;9.194;2023-12-20T04:08:29;98569.19;;;27.66;28.15
14902;BME280;7542;49.078;9.194;2023-12-20T04:09:31;98562.19;;;27.65;28.10
14902;BME280;7542;49.078;9.194;2023-12-20T04:10:33;98557.88;;;27.64;28.12
14902;BME280;7542;49.078;9.194;2023-12-20T04:11:36;98551.69;;;27.63;27.93
14902;BME280;7542;49.078;9.194;2023-12-20T04:12:39;98548.19;;;27.63;28.08
14902;BME280;7542;49.078;9.194;2023-12-20T04:13:41;98568.13;;;27.62;28.05
14902;BME280;7542;49.078;9.194;2023-12-20T04:14:42;98566.25;;;27.62;28.10
14902;BME280;7542;49.078;9.194;2023-12-20T04:15:44;98572.72;;;27.61;28.11
14902;BME280;7542;49.078;9.194;2023-12-20T04:16:46;98580.28;;;27.59;28.05
14902;BME280;7542;49.078;9.194;2023-12-20T04:17:48;98581.06;;;27.60;28.05
14902;BME280;7542;49.078;9.194;2023-12-20T04:18:51;98586.47;;;27.60;28.04
14902;BME280;7542;49.078;9.194;2023-12-20T04:19:53;98583.78;;;27.60;27.97
14902;BME280;7542;49.078;9.194;2023-12-20T04:20:55;98580.28;;;27.59;27.94
14902;BME280;7542;49.078;9.194;2023-12-20T04:21:57;98567.09;;;27.58;28.01
14902;BME280;7542;49.078;9.194;2023-12-20T04:22:59;98561.72;;;27.58;28.04
14902;BME280;7542;49.078;9.194;2023-12-20T04:24:01;98571.69;;;27.57;28.00
14902;BME280;7542;49.078;9.194;2023-12-20T04:25:03;98582.44;;;27.57;27.97
14902;BME280;7542;49.078;9.194;2023-12-20T04:26:05;98581.63;;;27.57;28.08
14902;BME280;7542;49.078;9.194;2023-12-20T04:27:07;98584.59;;;27.55;28.17
14902;BME280;7542;49.078;9.194;2023-12-20T04:28:09;98582.19;;;27.54;28.05
14902;BME280;7542;49.078;9.194;2023-12-20T04:29:11;98592.16;;;27.53;28.02
14902;BME280;7542;49.078;9.194;2023-12-20T04:30:13;98594.84;;;27.53;27.81
14902;BME280;7542;49.078;9.194;2023-12-20T04:31:15;98595.66;;;27.54;27.92
14902;BME280;7542;49.078;9.194;2023-12-20T04:32:17;98591.34;;;27.53;27.92
14902;BME280;7542;49.078;9.194;2023-12-20T04:33:19;98598.63;;;27.52;27.87
14902;BME280;7542;49.078;9.194;2023-12-20T04:34:22;98598.41;;;27.49;27.92
14902;BME280;7542;49.078;9.194;2023-12-20T04:35:24;98593.53;;;27.51;27.77
14902;BME280;7542;49.078;9.194;2023-12-20T04:36:26;98604.31;;;27.51;27.77
14902;BME280;7542;49.078;9.194;2023-12-20T04:37:28;98602.41;;;27.51;27.81
14902;BME280;7542;49.078;9.194;2023-12-20T04:38:30;98605.38;;;27.50;27.69
14902;BME280;7542;49.078;9.194;2023-12-20T04:39:32;98601.59;;;27.51;27.91
14902;BME280;7542;49.078;9.194;2023-12-20T04:40:35;98608.88;;;27.50;27.69
14902;BME280;7542;49.078;9.194;2023-12-20T04:41:36;98603.78;;;27.49;27.87
14902;BME280;7542;49.078;9.194;2023-12-20T04:42:38;98596.50;;;27.49;27.74
14902;BME280;7542;49.078;9.194;2023-12-20T04:43:40;98601.09;;;27.49;27.91
14902;BME280;7542;49.078;9.194;2023-12-20T04:44:42;98593.28;;;27.47;27.78
14902;BME280;7542;49.078;9.194;2023-12-20T04:45:45;98586.81;;;27.48;27.82
14902;BME280;7542;49.078;9.194;2023-12-20T04:46:47;98593.28;;;27.47;27.64
14902;BME280;7542;49.078;9.194;2023-12-20T04:47:49;98593.00;;;27.49;27.71
14902;BME280;7542;49.078;9.194;2023-12-20T04:48:51;98594.09;;;27.48;27.82
14902;BME280;7542;49.078;9.194;2023-12-20T04:49:53;98596.00;;;27.47;27.73
14902;BME280;7542;49.078;9.194;2023-12-20T04:50:55;98600.56;;;27.47;27.80
14902;BME280;7542;49.078;9.194;2023-12-20T04:51:57;98595.19;;;27.47;27.84
14902;BME280;7542;49.078;9.194;2023-12-20T04:52:59;98588.97;;;27.46;27.65
14902;BME280;7542;49.078;9.194;2023-12-20T04:54:02;98591.66;;;27.46;27.73
14902;BME280;7542;49.078;9.194;2023-12-20T04:55:04;98590.34;;;27.43;27.55
14902;BME280;7542;49.078;9.194;2023-12-20T04:56:06;98593.03;;;27.43;27.80
14902;BME280;7542;49.078;9.194;2023-12-20T04:57:08;98592.50;;;27.41;27.78
14902;BME280;7542;49.078;9.194;2023-12-20T04:58:10;98600.59;;;27.41;27.73
14902;BME280;7542;49.078;9.194;2023-12-20T04:59:12;98599.78;;;27.41;27.47
14902;BME280;7542;49.078;9.194;2023-12-20T05:00:16;98595.47;;;27.40;27.63
14902;BME280;7542;49.078;9.194;2023-12-20T05:01:18;98597.38;;;27.39;27.72
14902;BME280;7542;49.078;9.194;2023-12-20T05:02:20;98603.56;;;27.40;27.56
14902;BME280;7542;49.078;9.194;2023-12-20T05:03:22;98604.66;;;27.39;27.49
14902;BME280;7542;49.078;9.194;2023-12-20T05:04:24;98617.03;;;27.40;27.70
14902;BME280;7542;49.078;9.194;2023-12-20T05:05:26;98617.59;;;27.37;27.66
14902;BME280;7542;49.078;9.194;2023-12-20T05:06:28;98615.69;;;27.37;27.58
14902;BME280;7542;49.078;9.194;2023-12-20T05:07:30;98611.66;;;27.35;27.61
14902;BME280;7542;49.078;9.194;2023-12-20T05:08:32;98611.41;;;27.36;27.71
14902;BME280;7542;49.078;9.194;2023-12-20T05:09:34;98614.63;;;27.38;27.63
14902;BME280;7542;49.078;9.194;2023-12-20T05:10:36;98608.72;;;27.36;27.57
14902;BME280;7542;49.078;9.194;2023-12-20T05:11:38;98615.97;;;27.36;27.67
14902;BME280;7542;49.078;9.194;2023-12-20T05:12:40;98617.59;;;27.37;27.64
14902;BME280;7542;49.078;9.194;2023-12-20T05:13:42;98611.66;;;27.35;27.61
14902;BME280;7542;49.078;9.194;2023-12-20T05:14:52;98614.34;;;27.35;27.33
14902;BME280;7542;49.078;9.194;2023-12-20T05:15:54;98618.69;;;27.36;27.66
14902;BME280;7542;49.078;9.194;2023-12-20T05:16:56;98616.25;;;27.34;27.49
14902;BME280;7542;49.078;9.194;2023-12-20T05:17:58;98618.94;;;27.34;27.56
14902;BME280;7542;49.078;9.194;2023-12-20T05:19:00;98622.44;;;27.35;27.63
14902;BME280;7542;49.078;9.194;2023-12-20T05:20:04;98627.81;;;27.35;27.59
14902;BME280;7542;49.078;9.194;2023-12-20T05:21:06;98628.66;;;27.35;27.67
14902;BME280;7542;49.078;9.194;2023-12-20T05:22:09;98628.91;;;27.34;27.57
14902;BME280;7542;49.078;9.194;2023-12-20T05:23:11;98635.09;;;27.34;27.49
14902;BME280;7542;49.078;9.194;2023-12-20T05:24:13;98634.03;;;27.35;27.58
14902;BME280;7542;49.078;9.194;2023-12-20T05:25:15;98632.38;;;27.34;27.56
14902;BME280;7542;49.078;9.194;2023-12-20T05:26:17;98638.59;;;27.35;27.46
14902;BME280;7542;49.078;9.194;2023-12-20T05:27:19;98640.47;;;27.34;27.54
14902;BME280;7542;49.078;9.194;2023-12-20T05:28:21;98635.88;;;27.35;27.54
14902;BME280;7542;49.078;9.194;2023-12-20T05:29:23;98641.28;;;27.35;27.43
14902;BME280;7542;49.078;9.194;2023-12-20T05:30:25;98647.75;;;27.34;27.54
14902;BME280;7542;49.078;9.194;2023-12-20T05:31:27;98642.34;;;27.34;27.34
14902;BME280;7542;49.078;9.194;2023-12-20T05:32:29;98649.34;;;27.35;27.42
14902;BME280;7542;49.078;9.194;2023-12-20T05:33:30;98645.84;;;27.34;27.52
14902;BME280;7542;49.078;9.194;2023-12-20T05:34:32;98647.50;;;27.35;27.47